KGGG/GGG METAR and TAF weather

Enter ICAO airport designator
Station Type Date Time Source
KGGG METAR 2019/04/24 21:53 UTC NOAA

KGGG 242153Z 14005KT 10SM -RA SCT070 OVC100 21/20 A2981 RMK AO2 SLP091 P0001 T02060200


Station Type Date Time Source
KGGG Decoded METAR 2019/04/24 21:53 UTC NOAA

LONGVIEW GREGG COUNTY AIRPORT , TX, United States (KGGG) 32-23N 094-43W 107M
Apr 24, 2019 - 05:53 PM EDT / 2019.04.24 2153 UTC
Wind: from the SE (140 degrees) at 6 MPH (5 KT):0
Visibility: 10 mile(s):0
Sky conditions: overcast
Weather: light rain
Precipitation last hour: 0.01 inches
Temperature: 69.1 F (20.6 C)
Dew Point: 68.0 F (20.0 C)
Relative Humidity: 96%
Pressure (altimeter): 29.81 in. Hg (1009 hPa)
ob: KGGG 242153Z 14005KT 10SM -RA SCT070 OVC100 21/20 A2981 RMK AO2 SLP091 P0001 T02060200
cycle: 22

Station Type Date Time Source
KGGG TAF 2019/04/24 18:27 UTC NOAA

TAF KGGG 241725Z 2418/2518 18008KT 6SM -SHRA VCTS BKN010 OVC030CB
FM242300 27007KT 5SM -TSRA OVC025CB
FM250500 30011KT 4SM -RA BR OVC015
FM250900 28008KT P6SM OVC007
FM251500 30010G16KT P6SM OVC015

Example: see airport list